createdAt,value
2022-11-28T00:01:55.047Z,8.77
2022-11-28T00:04:25.995Z,9.00
2022-11-28T00:06:56.914Z,7.57
2022-11-28T00:09:27.866Z,7.23
2022-11-28T00:11:58.627Z,7.70
2022-11-28T00:14:29.175Z,7.60
2022-11-28T00:16:59.814Z,8.73
2022-11-28T00:19:30.393Z,8.67
2022-11-28T00:22:00.983Z,8.10
2022-11-28T00:24:31.715Z,7.93
2022-11-28T00:27:02.251Z,7.73
2022-11-28T00:29:32.788Z,8.20
2022-11-28T00:32:03.529Z,7.63
2022-11-28T00:34:34.227Z,8.27
2022-11-28T00:37:04.751Z,7.33
2022-11-28T00:39:35.399Z,7.43
2022-11-28T00:42:06.262Z,8.00
2022-11-28T00:44:36.835Z,8.70
2022-11-28T00:47:07.705Z,11.10
2022-11-28T00:49:38.446Z,10.13
2022-11-28T00:52:09.146Z,9.27
2022-11-28T00:54:41.399Z,8.07
2022-11-28T00:57:12.225Z,9.13
2022-11-28T00:59:42.942Z,8.53
2022-11-28T01:02:13.573Z,8.73
2022-11-28T01:04:44.613Z,7.20
2022-11-28T01:07:15.291Z,7.30
2022-11-28T01:09:45.891Z,6.80
2022-11-28T01:12:16.472Z,6.37
2022-11-28T01:14:47.227Z,6.50
2022-11-28T01:17:17.765Z,6.40
2022-11-28T01:19:48.288Z,6.73
2022-11-28T01:22:18.949Z,6.87
2022-11-28T01:24:49.507Z,7.57
2022-11-28T01:27:20.053Z,6.87
2022-11-28T01:29:50.584Z,6.70
2022-11-28T01:32:21.118Z,6.43
2022-11-28T01:34:51.947Z,6.13
2022-11-28T01:37:22.483Z,6.67
2022-11-28T01:39:53.059Z,6.90
2022-11-28T01:42:23.829Z,7.77
2022-11-28T01:48:04.160Z,10.17
2022-11-28T01:50:36.411Z,10.50
2022-11-28T01:53:10.319Z,10.27
2022-11-28T01:55:45.077Z,9.50
2022-11-28T01:58:16.327Z,8.40
2022-11-28T02:00:47.421Z,7.87
2022-11-28T02:03:21.541Z,7.37
2022-11-28T02:05:54.441Z,7.27
2022-11-28T02:08:25.751Z,8.37
2022-11-28T02:11:05.813Z,8.10
2022-11-28T02:13:43.417Z,8.00
2022-11-28T02:16:21.454Z,6.83
2022-11-28T02:19:02.851Z,6.83
2022-11-28T02:21:48.660Z,7.03
2022-11-28T02:24:40.140Z,7.47
2022-11-28T02:30:25.625Z,6.33
2022-11-28T02:33:06.794Z,7.47
2022-11-28T02:35:41.723Z,6.57
2022-11-28T02:38:16.735Z,7.13
2022-11-28T02:40:51.207Z,6.13
2022-11-28T02:43:26.679Z,8.13
2022-11-28T02:46:00.735Z,8.00
2022-11-28T02:48:35.509Z,7.43
2022-11-28T02:51:09.667Z,6.90
2022-11-28T02:53:40.704Z,6.90
2022-11-28T02:56:13.965Z,7.40
2022-11-28T02:58:44.517Z,7.57
2022-11-28T03:01:19.321Z,6.50
2022-11-28T03:04:06.803Z,6.27
2022-11-28T03:06:45.099Z,6.87
2022-11-28T03:09:28.817Z,7.40
2022-11-28T03:12:03.242Z,6.77
2022-11-28T03:14:38.601Z,6.57
2022-11-28T03:17:13.292Z,6.07
2022-11-28T03:19:47.850Z,6.70
2022-11-28T03:22:21.311Z,7.20
2022-11-28T03:24:55.326Z,6.80
2022-11-28T03:27:28.513Z,6.57
2022-11-28T03:30:02.074Z,6.43
2022-11-28T03:32:36.199Z,6.33
2022-11-28T03:35:26.979Z,5.73
2022-11-28T03:38:00.630Z,6.27
2022-11-28T03:40:34.790Z,6.17
2022-11-28T03:43:08.365Z,5.80
2022-11-28T03:45:41.892Z,7.30
2022-11-28T03:48:15.436Z,6.80
2022-11-28T03:50:49.063Z,4.83
2022-11-28T03:53:22.750Z,4.83
2022-11-28T03:55:56.394Z,5.67
2022-11-28T03:58:29.995Z,6.43
2022-11-28T04:01:05.141Z,6.33
2022-11-28T04:03:40.734Z,6.30
2022-11-28T04:06:16.204Z,4.30
2022-11-28T04:08:50.596Z,5.83
2022-11-28T04:11:24.179Z,5.47
2022-11-28T04:13:57.655Z,4.90
2022-11-28T04:16:31.661Z,4.43
2022-11-28T04:19:05.909Z,5.77
2022-11-28T04:21:40.084Z,4.90
2022-11-28T04:24:13.962Z,4.87
2022-11-28T04:26:47.599Z,4.70
2022-11-28T04:29:21.560Z,5.50
2022-11-28T04:31:55.037Z,6.67
2022-11-28T04:34:27.526Z,7.37
2022-11-28T04:37:03.271Z,8.20
2022-11-28T04:39:35.908Z,7.57
2022-11-28T04:42:09.819Z,8.60
2022-11-28T04:44:44.888Z,7.30
2022-11-28T04:47:15.797Z,5.10
2022-11-28T04:49:46.554Z,5.70
2022-11-28T04:52:20.287Z,5.30
2022-11-28T04:54:55.574Z,5.37
2022-11-28T04:57:30.585Z,5.57
2022-11-28T05:00:04.358Z,5.83
2022-11-28T05:02:36.221Z,6.03
2022-11-28T05:05:11.419Z,5.70
2022-11-28T05:07:42.202Z,5.30
2022-11-28T05:10:15.037Z,5.83
2022-11-28T05:12:46.259Z,5.90
2022-11-28T05:15:19.345Z,4.77
2022-11-28T05:17:49.950Z,5.47
2022-11-28T05:20:20.675Z,5.53
2022-11-28T05:22:51.204Z,6.63
2022-11-28T05:25:22.930Z,5.47
2022-11-28T05:27:53.438Z,4.70
2022-11-28T05:30:24.151Z,5.93
2022-11-28T05:32:54.781Z,5.97
2022-11-28T05:35:25.632Z,5.07
2022-11-28T05:37:56.748Z,5.07
2022-11-28T05:40:27.478Z,5.33
2022-11-28T05:42:58.068Z,7.80
2022-11-28T05:45:28.919Z,6.87
2022-11-28T05:47:59.518Z,5.50
2022-11-28T05:50:33.665Z,5.37
2022-11-28T05:53:03.247Z,6.10
2022-11-28T05:55:33.869Z,5.83
2022-11-28T05:58:04.448Z,7.37
2022-11-28T06:00:35.340Z,7.60
2022-11-28T06:03:06.477Z,6.63
2022-11-28T06:05:43.498Z,6.70
2022-11-28T06:08:11.757Z,6.70
2022-11-28T06:10:42.421Z,7.03
2022-11-28T06:13:12.944Z,5.60
2022-11-28T06:15:46.504Z,5.90
2022-11-28T06:18:17.129Z,6.93
2022-11-28T06:20:47.708Z,6.90
2022-11-28T06:23:18.300Z,6.00
2022-11-28T06:25:48.916Z,6.30
2022-11-28T06:28:19.447Z,6.87
2022-11-28T06:30:50.099Z,6.80
2022-11-28T06:33:20.599Z,9.03
2022-11-28T06:35:51.229Z,8.70
2022-11-28T06:38:21.810Z,8.70
2022-11-28T06:40:52.440Z,8.00
2022-11-28T06:43:23.048Z,7.70
2022-11-28T06:45:53.903Z,7.00
2022-11-28T06:48:25.297Z,6.30
2022-11-28T06:50:57.950Z,7.87
2022-11-28T06:53:31.448Z,7.87
2022-11-28T06:56:02.589Z,7.57
2022-11-28T06:58:33.119Z,7.20
2022-11-28T07:01:10.033Z,8.17
2022-11-28T07:03:42.117Z,6.87
2022-11-28T07:06:13.648Z,6.57
2022-11-28T07:08:44.324Z,6.57
2022-11-28T07:11:17.315Z,6.83
2022-11-28T07:13:49.211Z,7.03
2022-11-28T07:16:21.987Z,7.00
2022-11-28T07:18:52.969Z,6.90
2022-11-28T07:21:24.182Z,5.77
2022-11-28T07:23:55.971Z,6.33
2022-11-28T07:26:26.795Z,6.13
2022-11-28T07:28:58.525Z,6.30
2022-11-28T07:31:31.100Z,6.57
2022-11-28T07:34:04.093Z,6.17
2022-11-28T07:36:35.035Z,6.77
2022-11-28T07:39:08.761Z,7.57
2022-11-28T07:41:39.423Z,8.93
2022-11-28T07:44:11.394Z,8.60
2022-11-28T07:46:42.093Z,6.67
2022-11-28T07:49:13.172Z,8.60
2022-11-28T07:51:44.036Z,9.30
2022-11-28T07:54:14.596Z,8.83
2022-11-28T07:57:11.666Z,7.93
2022-11-28T07:59:17.430Z,8.03
2022-11-28T08:01:48.881Z,6.97
2022-11-28T08:04:19.578Z,7.07
2022-11-28T08:06:50.207Z,6.90
2022-11-28T08:09:20.789Z,6.67
2022-11-28T08:11:52.767Z,7.00
2022-11-28T08:14:23.441Z,6.47
2022-11-28T08:16:54.070Z,6.60
2022-11-28T08:19:24.977Z,6.63
2022-11-28T08:21:55.716Z,6.37
2022-11-28T08:24:26.273Z,7.07
2022-11-28T08:26:57.117Z,6.83
2022-11-28T08:29:27.643Z,6.33
2022-11-28T08:31:58.182Z,6.40
2022-11-28T08:34:28.801Z,7.10
2022-11-28T08:36:59.339Z,6.57
2022-11-28T08:39:29.939Z,7.00
2022-11-28T08:42:00.625Z,7.27
2022-11-28T08:44:31.568Z,8.10
2022-11-28T08:47:02.283Z,7.47
2022-11-28T08:49:32.918Z,6.93
2022-11-28T08:52:04.006Z,6.23
2022-11-28T08:54:34.592Z,6.07
2022-11-28T08:57:05.249Z,5.63
2022-11-28T08:59:35.872Z,5.20
2022-11-28T09:02:06.524Z,5.87
2022-11-28T09:04:37.102Z,5.70
2022-11-28T09:07:07.629Z,5.27
2022-11-28T09:09:38.212Z,4.37
2022-11-28T09:12:09.835Z,4.10
2022-11-28T09:14:40.569Z,4.80
2022-11-28T09:17:11.185Z,5.20
2022-11-28T09:19:42.062Z,5.90
2022-11-28T09:22:13.198Z,9.73
2022-11-28T09:24:43.811Z,9.07
2022-11-28T09:27:14.340Z,9.10
2022-11-28T09:29:45.198Z,9.77
2022-11-28T09:32:16.058Z,9.20
2022-11-28T09:34:46.736Z,9.70
2022-11-28T09:37:17.227Z,8.80
2022-11-28T09:40:11.344Z,8.73
2022-11-28T09:42:23.853Z,8.97
2022-11-28T09:44:57.941Z,9.20
2022-11-28T09:47:30.609Z,8.87
2022-11-28T09:50:04.096Z,8.83
2022-11-28T09:52:39.102Z,8.57
2022-11-28T09:55:17.760Z,8.97
2022-11-28T09:57:51.684Z,9.57
2022-11-28T10:00:23.927Z,8.23
2022-11-28T10:03:07.844Z,8.73
2022-11-28T10:05:41.975Z,9.33
2022-11-28T10:08:24.790Z,8.90
2022-11-28T10:11:01.887Z,9.30
2022-11-28T10:14:00.275Z,8.60
2022-11-28T10:16:16.286Z,8.87
2022-11-28T10:21:31.575Z,9.30
2022-11-28T10:24:05.816Z,9.40
2022-11-28T10:26:39.169Z,9.73
2022-11-28T10:29:14.288Z,10.90
2022-11-28T10:31:46.875Z,11.67
2022-11-28T10:34:20.470Z,11.50
2022-11-28T10:36:55.737Z,12.40
2022-11-28T10:39:27.927Z,11.90
2022-11-28T10:42:14.054Z,10.47
2022-11-28T10:44:57.405Z,10.63
2022-11-28T10:47:37.447Z,11.23
2022-11-28T10:50:12.506Z,11.47
2022-11-28T10:52:46.201Z,10.13
2022-11-28T10:55:25.951Z,9.77
2022-11-28T10:58:02.760Z,9.57
2022-11-28T11:00:34.281Z,11.03
2022-11-28T11:03:07.100Z,10.13
2022-11-28T11:05:38.918Z,9.60
2022-11-28T11:08:16.529Z,8.00
2022-11-28T11:10:51.373Z,7.67
2022-11-28T11:13:24.551Z,7.10
2022-11-28T11:15:59.869Z,6.80
2022-11-28T11:18:33.467Z,6.50
2022-11-28T11:21:13.623Z,5.87
2022-11-28T11:23:44.694Z,5.80
2022-11-28T11:26:26.420Z,6.27
2022-11-28T11:28:57.806Z,6.97
2022-11-28T11:31:30.009Z,7.47
2022-11-28T11:34:06.904Z,8.03
2022-11-28T11:36:38.719Z,7.43
2022-11-28T11:39:25.589Z,7.23
2022-11-28T11:42:12.837Z,7.40
2022-11-28T11:44:43.432Z,7.30
2022-11-28T11:47:14.221Z,8.60
2022-11-28T11:49:46.729Z,9.80
2022-11-28T11:52:21.714Z,8.30
2022-11-28T11:55:02.215Z,8.50
2022-11-28T11:57:37.191Z,7.00
2022-11-28T12:00:13.479Z,7.70
2022-11-28T12:02:46.927Z,7.60
2022-11-28T12:05:20.105Z,8.87
2022-11-28T12:07:57.602Z,10.27
2022-11-28T12:10:31.211Z,10.90
2022-11-28T12:13:03.018Z,14.23
2022-11-28T12:15:38.772Z,13.57
2022-11-28T12:18:22.893Z,13.33
2022-11-28T12:21:00.715Z,13.93
2022-11-28T12:23:38.875Z,11.13
2022-11-28T12:26:13.151Z,9.37
2022-11-28T12:28:51.811Z,9.40
2022-11-28T12:31:26.111Z,13.20
2022-11-28T12:34:02.645Z,13.80
2022-11-28T12:36:36.173Z,14.00
2022-11-28T12:39:24.447Z,13.80
2022-11-28T12:42:20.352Z,13.03
2022-11-28T12:45:06.531Z,12.80
2022-11-28T12:47:42.126Z,11.70
2022-11-28T12:50:21.542Z,11.47
2022-11-28T12:52:55.369Z,6.57
2022-11-28T12:55:31.167Z,7.10
2022-11-28T12:58:07.106Z,7.83
2022-11-28T13:00:41.635Z,8.40
2022-11-28T13:03:17.484Z,9.03
2022-11-28T13:05:54.786Z,8.10
2022-11-28T13:08:35.984Z,8.53
2022-11-28T13:11:13.196Z,8.17
2022-11-28T13:13:46.810Z,8.37
2022-11-28T13:16:26.642Z,7.87
2022-11-28T13:18:57.748Z,8.47
2022-11-28T13:21:32.993Z,8.63
2022-11-28T13:24:07.633Z,8.13
2022-11-28T13:26:44.770Z,10.90
2022-11-28T13:29:22.124Z,12.10
2022-11-28T13:32:01.577Z,10.50
2022-11-28T13:34:30.324Z,10.00
2022-11-28T13:39:41.857Z,10.70
2022-11-28T13:42:59.438Z,10.80
2022-11-28T13:45:04.152Z,11.27
2022-11-28T13:47:36.943Z,11.00
2022-11-28T13:50:39.533Z,10.80
2022-11-28T13:53:26.842Z,10.17
2022-11-28T13:56:21.552Z,13.60
2022-11-28T13:58:56.958Z,13.77
2022-11-28T14:01:31.213Z,12.53
2022-11-28T14:04:09.145Z,14.43
2022-11-28T14:06:46.940Z,15.53
2022-11-28T14:09:27.716Z,15.70
2022-11-28T14:12:12.288Z,14.77
2022-11-28T14:15:11.636Z,14.47
2022-11-28T14:18:00.236Z,13.50
2022-11-28T14:20:34.195Z,13.60
2022-11-28T14:23:14.662Z,13.43
2022-11-28T14:25:47.504Z,14.50
2022-11-28T14:28:23.651Z,13.23
2022-11-28T14:30:56.527Z,15.37
2022-11-28T14:33:30.055Z,12.10
2022-11-28T14:36:12.035Z,12.67
2022-11-28T14:38:47.563Z,13.37
2022-11-28T14:41:19.595Z,12.90
2022-11-28T14:43:50.907Z,12.17
2022-11-28T14:46:30.199Z,11.60
2022-11-28T14:49:22.812Z,11.30
2022-11-28T14:52:40.257Z,11.83
2022-11-28T14:55:17.436Z,11.60
2022-11-28T14:57:58.107Z,12.87
2022-11-28T15:00:31.808Z,12.50
2022-11-28T15:03:19.082Z,9.27
2022-11-28T15:05:52.023Z,12.07
2022-11-28T15:08:56.746Z,14.10
2022-11-28T15:11:56.768Z,15.60
2022-11-28T15:14:29.398Z,22.87
2022-11-28T15:17:04.417Z,38.63
2022-11-28T15:19:38.257Z,26.83
2022-11-28T15:22:11.808Z,22.53
2022-11-28T15:24:42.613Z,18.47
2022-11-28T15:27:24.379Z,18.47
2022-11-28T15:29:59.382Z,17.23
2022-11-28T15:32:33.050Z,15.53
2022-11-28T15:35:11.053Z,15.90
2022-11-28T15:37:38.083Z,16.23
2022-11-28T15:40:20.028Z,18.07
2022-11-28T15:42:51.805Z,17.27
2022-11-28T15:45:27.983Z,17.90
2022-11-28T15:47:59.329Z,15.40
2022-11-28T15:50:31.300Z,13.63
2022-11-28T15:53:03.441Z,14.07
2022-11-28T15:55:35.581Z,13.60
2022-11-28T15:58:21.245Z,12.17
2022-11-28T16:00:54.945Z,12.10
2022-11-28T16:03:29.284Z,12.27
2022-11-28T16:06:01.471Z,8.50
2022-11-28T16:08:35.460Z,9.40
2022-11-28T16:11:09.114Z,15.80
2022-11-28T16:13:43.346Z,15.03
2022-11-28T16:16:17.605Z,13.60
2022-11-28T16:18:52.649Z,10.33
2022-11-28T16:21:26.317Z,7.97
2022-11-28T16:23:58.087Z,9.90
2022-11-28T16:26:35.312Z,12.20
2022-11-28T16:29:14.824Z,7.10
2022-11-28T16:31:47.912Z,8.30
2022-11-28T16:34:20.108Z,10.27
2022-11-28T16:36:51.896Z,10.50
2022-11-28T16:39:22.428Z,8.07
2022-11-28T16:41:56.870Z,4.83
2022-11-28T16:44:28.230Z,3.70
2022-11-28T16:46:59.843Z,2.20
2022-11-28T16:49:38.671Z,2.57
2022-11-28T16:52:45.714Z,3.20
2022-11-28T16:55:52.733Z,1.70
2022-11-28T16:58:24.832Z,2.20
2022-11-28T17:01:01.431Z,5.70
2022-11-28T17:03:53.782Z,4.87
2022-11-28T17:06:31.781Z,14.13
2022-11-28T17:09:02.970Z,13.07
2022-11-28T17:11:36.496Z,19.10
2022-11-28T17:14:13.465Z,16.60
2022-11-28T17:16:42.676Z,17.40
2022-11-28T17:19:13.405Z,17.50
2022-11-28T17:21:46.775Z,19.47
2022-11-28T17:24:20.936Z,20.30
2022-11-28T17:26:52.599Z,22.20
2022-11-28T17:29:25.442Z,19.33
2022-11-28T17:31:58.475Z,17.03
2022-11-28T17:34:31.348Z,16.27
2022-11-28T17:37:02.977Z,14.73
2022-11-28T17:39:33.789Z,9.40
2022-11-28T17:42:04.894Z,15.30
2022-11-28T17:44:37.999Z,12.67
2022-11-28T17:47:08.698Z,12.50
2022-11-28T17:49:44.711Z,13.23
2022-11-28T17:52:12.144Z,7.30
2022-11-28T17:54:43.935Z,4.80
2022-11-28T17:57:14.448Z,3.87
2022-11-28T17:59:45.206Z,5.20
2022-11-28T18:02:16.106Z,5.20
2022-11-28T18:04:46.704Z,4.43
2022-11-28T18:07:17.273Z,7.00
2022-11-28T18:09:48.517Z,12.63
2022-11-28T18:12:19.219Z,10.70
2022-11-28T18:14:49.924Z,9.83
2022-11-28T18:17:20.572Z,10.20
2022-11-28T18:19:55.922Z,10.47
2022-11-28T18:22:23.302Z,3.80
2022-11-28T18:24:54.007Z,7.10
2022-11-28T18:27:24.616Z,9.93
2022-11-28T18:29:55.125Z,5.77
2022-11-28T18:32:25.839Z,4.93
2022-11-28T18:34:56.483Z,4.77
2022-11-28T18:37:27.016Z,8.07
2022-11-28T18:39:57.611Z,9.90
2022-11-28T18:42:28.154Z,10.37
2022-11-28T18:44:58.836Z,10.70
2022-11-28T18:47:29.477Z,10.20
2022-11-28T18:49:59.994Z,10.93
2022-11-28T18:52:30.554Z,10.67
2022-11-28T18:55:01.267Z,10.37
2022-11-28T18:57:33.730Z,11.07
2022-11-28T19:00:06.063Z,11.30
2022-11-28T19:02:36.699Z,9.70
2022-11-28T19:05:09.093Z,10.10
2022-11-28T19:07:39.704Z,10.00
2022-11-28T19:10:13.267Z,10.23
2022-11-28T19:12:43.868Z,11.33
2022-11-28T19:15:14.514Z,11.90
2022-11-28T19:17:45.219Z,10.27
2022-11-28T19:20:16.173Z,9.40
2022-11-28T19:22:46.702Z,7.60
2022-11-28T19:25:17.789Z,7.27
2022-11-28T19:27:48.494Z,7.20
2022-11-28T19:30:19.582Z,5.20
2022-11-28T19:32:50.157Z,5.80
2022-11-28T19:35:20.930Z,6.00
2022-11-28T19:37:51.558Z,6.47
2022-11-28T19:40:22.238Z,10.23
2022-11-28T19:42:53.139Z,9.60
2022-11-28T19:45:23.767Z,7.43
2022-11-28T19:47:54.555Z,8.07
2022-11-28T19:50:25.129Z,8.17
2022-11-28T19:52:55.713Z,6.93
2022-11-28T19:55:26.370Z,8.07
2022-11-28T19:57:56.980Z,6.77
2022-11-28T20:00:28.130Z,7.43
2022-11-28T20:02:58.783Z,6.80
2022-11-28T20:05:31.098Z,7.27
2022-11-28T20:08:02.291Z,10.20
2022-11-28T20:10:32.898Z,9.13
2022-11-28T20:13:04.827Z,7.10
2022-11-28T20:15:39.078Z,7.27
2022-11-28T20:18:10.438Z,7.60
2022-11-28T20:20:41.171Z,7.60
2022-11-28T20:23:12.094Z,7.97
2022-11-28T20:25:42.747Z,8.30
2022-11-28T20:28:14.200Z,10.07
2022-11-28T20:30:45.972Z,9.50
2022-11-28T20:33:17.046Z,9.27
2022-11-28T20:35:47.717Z,8.90
2022-11-28T20:38:19.285Z,9.03
2022-11-28T20:40:50.923Z,8.23
2022-11-28T20:43:22.292Z,8.50
2022-11-28T20:45:53.139Z,8.30
2022-11-28T20:48:23.775Z,9.50
2022-11-28T20:50:54.407Z,9.10
2022-11-28T20:53:26.912Z,7.33
2022-11-28T20:56:03.093Z,7.17
2022-11-28T20:58:34.938Z,7.33
2022-11-28T21:01:06.061Z,7.53
2022-11-28T21:03:37.118Z,7.77
2022-11-28T21:06:08.626Z,8.27
2022-11-28T21:08:39.303Z,8.40
2022-11-28T21:11:21.390Z,8.73
2022-11-28T21:13:44.863Z,9.77
2022-11-28T21:16:17.832Z,10.87
2022-11-28T21:18:49.647Z,12.40
2022-11-28T21:21:22.241Z,14.70
2022-11-28T21:23:52.909Z,15.63
2022-11-28T21:26:30.112Z,14.90
2022-11-28T21:29:00.101Z,17.13
2022-11-28T21:31:33.357Z,16.03
2022-11-28T21:34:04.309Z,17.23
2022-11-28T21:36:34.946Z,17.10
2022-11-28T21:39:06.301Z,16.37
2022-11-28T21:41:36.900Z,15.40
2022-11-28T21:44:07.789Z,15.33
2022-11-28T21:46:38.430Z,15.87
2022-11-28T21:49:08.967Z,15.63
2022-11-28T21:51:39.529Z,17.70
2022-11-28T21:54:11.126Z,14.27
2022-11-28T21:56:42.099Z,15.50
2022-11-28T21:59:12.664Z,15.33
2022-11-28T22:01:43.251Z,16.20
2022-11-28T22:04:14.176Z,16.33
2022-11-28T22:06:44.710Z,19.20
2022-11-28T22:09:15.250Z,19.03
2022-11-28T22:11:45.823Z,18.17
2022-11-28T22:14:18.117Z,18.87
2022-11-28T22:16:48.636Z,16.67
2022-11-28T22:19:19.500Z,18.87
2022-11-28T22:21:52.476Z,19.03
2022-11-28T22:24:22.478Z,18.13
2022-11-28T22:26:53.703Z,18.03
2022-11-28T22:29:24.439Z,18.83
2022-11-28T22:31:55.076Z,17.97
2022-11-28T22:34:25.852Z,17.60
2022-11-28T22:36:56.396Z,18.00
2022-11-28T22:39:26.902Z,16.47
2022-11-28T22:41:57.584Z,21.27
2022-11-28T22:44:28.628Z,17.43
2022-11-28T22:46:59.109Z,15.20
2022-11-28T22:49:29.788Z,16.97
2022-11-28T22:52:00.331Z,20.13
2022-11-28T22:54:30.882Z,16.87
2022-11-28T22:57:01.473Z,16.10
2022-11-28T22:59:34.408Z,16.27
2022-11-28T23:02:05.509Z,14.57
2022-11-28T23:04:36.354Z,14.60
2022-11-28T23:07:06.892Z,16.30
2022-11-28T23:09:37.667Z,16.40
2022-11-28T23:12:08.914Z,15.43
2022-11-28T23:14:39.520Z,14.63
2022-11-28T23:17:10.165Z,14.90
2022-11-28T23:19:41.355Z,14.87
2022-11-28T23:22:11.892Z,15.47
2022-11-28T23:24:42.784Z,12.70
2022-11-28T23:27:13.596Z,11.57
2022-11-28T23:29:44.290Z,12.33
2022-11-28T23:32:14.842Z,10.93
2022-11-28T23:34:45.630Z,14.30
2022-11-28T23:37:16.458Z,16.80
2022-11-28T23:39:47.559Z,27.80
2022-11-28T23:42:18.062Z,26.37
2022-11-28T23:44:48.606Z,26.20
2022-11-28T23:47:19.312Z,15.07
2022-11-28T23:49:49.862Z,31.77
2022-11-28T23:52:20.372Z,23.97
2022-11-28T23:54:50.985Z,12.13
2022-11-28T23:57:21.531Z,17.50
2022-11-28T23:59:52.100Z,10.80
